Time;durP1;ratioP1;P1;durP2;ratioP2;P2;SDS_P1;SDS_P2;PMS_P1;PMS_P2;Temp;Humidity;BMP_temperature;BMP_pressure;BME280_temperature;BME280_humidity;BME280_pressure;Samples;Min_cycle;Max_cycle;Signal;HPM_P1;HPM_P2
2022/04/25 00:02:15;;;;;;;19.63;12.40;;;8.80;99.90;;;;;;4936494;29;20039;-63
2022/04/25 00:04:41;;;;;;;19.52;12.15;;;8.80;99.90;;;;;;4925980;29;20091;-63
2022/04/25 00:07:06;;;;;;;18.02;10.88;;;8.80;99.90;;;;;;4934080;29;20179;-63
2022/04/25 00:09:32;;;;;;;17.98;12.20;;;8.80;99.90;;;;;;4936025;29;20044;-63
2022/04/25 00:11:57;;;;;;;21.08;11.95;;;8.80;99.90;;;;;;4935174;29;20055;-63
2022/04/25 00:14:23;;;;;;;21.40;12.90;;;8.80;99.90;;;;;;4923432;29;20126;-63
2022/04/25 00:16:54;;;;;;;22.20;13.20;;;8.80;99.90;;;;;;4928861;29;20505;-63
2022/04/25 00:19:20;;;;;;;20.95;12.80;;;8.80;99.90;;;;;;4935945;29;20055;-63
2022/04/25 00:21:46;;;;;;;21.05;13.10;;;8.90;99.90;;;;;;4923743;29;20044;-63
2022/04/25 00:24:11;;;;;;;22.45;13.23;;;8.90;99.90;;;;;;4930775;29;20559;-63
2022/04/25 00:26:37;;;;;;;23.33;12.95;;;8.90;99.90;;;;;;4936173;29;20598;-63
2022/04/25 00:29:02;;;;;;;19.08;12.98;;;8.90;99.90;;;;;;4931580;29;22553;-63
2022/04/25 00:31:28;;;;;;;20.05;12.95;;;8.90;99.90;;;;;;4919497;29;20463;-63
2022/04/25 00:33:53;;;;;;;19.95;13.43;;;8.90;99.90;;;;;;4934349;29;20103;-62
2022/04/25 00:36:19;;;;;;;20.80;13.10;;;8.90;99.90;;;;;;4935809;29;20035;-63
2022/04/25 00:38:44;;;;;;;20.55;13.25;;;8.90;99.90;;;;;;4914143;29;20491;-63
2022/04/25 00:41:10;;;;;;;20.90;14.05;;;8.90;99.90;;;;;;4929147;29;20040;-63
2022/04/25 00:43:35;;;;;;;18.77;13.18;;;8.90;99.90;;;;;;4935416;29;20042;-63
2022/04/25 00:46:02;;;;;;;21.42;13.45;;;8.90;99.90;;;;;;4935885;29;20462;-63
2022/04/25 00:48:27;;;;;;;22.05;13.98;;;8.90;99.90;;;;;;4916194;29;20505;-63
2022/04/25 00:50:53;;;;;;;20.13;13.25;;;8.90;99.90;;;;;;4927443;29;20558;-63
2022/04/25 00:53:18;;;;;;;18.73;13.27;;;8.80;99.90;;;;;;4932493;29;20114;-61
2022/04/25 00:55:44;;;;;;;21.63;13.93;;;8.80;99.90;;;;;;4923999;29;20600;-63
2022/04/25 00:58:12;;;;;;;23.90;12.77;;;8.80;99.90;;;;;;4935223;29;20043;-63
2022/04/25 01:00:38;;;;;;;20.80;12.95;;;8.70;99.90;;;;;;4935344;29;20162;-63
2022/04/25 01:03:04;;;;;;;22.42;14.13;;;8.70;99.90;;;;;;4935324;29;20050;-63
2022/04/25 01:05:30;;;;;;;20.20;13.25;;;8.70;99.90;;;;;;4921466;29;20406;-63
2022/04/25 01:07:55;;;;;;;21.17;14.30;;;8.70;99.90;;;;;;4933753;29;20051;-63
2022/04/25 01:10:21;;;;;;;23.10;14.80;;;8.70;99.90;;;;;;4929901;29;20168;-63
2022/04/25 01:12:46;;;;;;;22.50;13.73;;;8.60;99.90;;;;;;4927259;29;20054;-63
2022/04/25 01:15:13;;;;;;;27.27;15.73;;;8.60;99.90;;;;;;4934936;29;20046;-63
2022/04/25 01:17:40;;;;;;;20.00;12.07;;;8.60;99.90;;;;;;4935066;29;20047;-63
2022/04/25 01:20:07;;;;;;;20.98;13.35;;;8.60;99.90;;;;;;4928154;29;21123;-63
2022/04/25 01:22:53;;;;;;;21.65;13.70;;;8.60;99.90;;;;;;4914483;29;20047;-63
2022/04/25 01:28:03;;;;;;;18.95;10.95;;;8.50;99.90;;;;;;4931181;29;20131;-63
2022/04/25 01:30:31;;;;;;;19.80;11.70;;;8.50;99.90;;;;;;4934047;29;20119;-63
2022/04/25 01:33:00;;;;;;;21.65;13.32;;;8.50;99.90;;;;;;4933184;29;20490;-63
2022/04/25 01:35:26;;;;;;;27.17;16.70;;;8.50;99.90;;;;;;4932024;29;20055;-62
2022/04/25 01:37:52;;;;;;;22.88;15.70;;;8.50;99.90;;;;;;4924587;29;20047;-63
2022/04/25 01:40:17;;;;;;;24.98;15.75;;;8.50;99.90;;;;;;4934421;29;20507;-63
2022/04/25 01:42:43;;;;;;;25.63;16.70;;;8.40;99.90;;;;;;4934511;29;20513;-63
2022/04/25 01:45:09;;;;;;;29.88;17.65;;;8.50;99.90;;;;;;4923003;29;20115;-63
2022/04/25 01:47:35;;;;;;;28.17;17.73;;;8.50;99.90;;;;;;4932373;29;20174;-62
2022/04/25 01:50:00;;;;;;;27.30;16.88;;;8.50;99.90;;;;;;4933471;29;20062;-62
2022/04/25 01:52:32;;;;;;;27.75;17.98;;;8.50;99.90;;;;;;4925493;29;20028;-63
2022/04/25 01:54:59;;;;;;;30.23;17.95;;;8.50;99.90;;;;;;4925742;29;20039;-63
2022/04/25 01:57:25;;;;;;;31.38;17.80;;;8.50;99.90;;;;;;4934251;29;20115;-63
2022/04/25 01:59:51;;;;;;;27.00;17.88;;;8.50;99.90;;;;;;4934339;29;20449;-62
2022/04/25 02:02:17;;;;;;;27.38;16.77;;;8.40;99.90;;;;;;4919297;29;20662;-62
2022/04/25 02:04:43;;;;;;;26.55;17.10;;;8.50;99.90;;;;;;4933821;29;20051;-63
2022/04/25 02:07:10;;;;;;;31.05;17.63;;;8.40;99.90;;;;;;4934348;29;20039;-62
2022/04/25 02:09:37;;;;;;;30.33;17.73;;;8.40;99.90;;;;;;4916096;29;20040;-63
2022/04/25 02:12:04;;;;;;;29.25;16.58;;;8.30;99.90;;;;;;4926289;29;20569;-63
2022/04/25 02:14:30;;;;;;;28.35;15.68;;;8.20;99.90;;;;;;4933801;29;20046;-63
2022/04/25 02:16:58;;;;;;;27.33;16.63;;;8.20;99.90;;;;;;4920595;29;20044;-63
2022/04/25 02:19:25;;;;;;;28.38;17.67;;;8.20;99.90;;;;;;4933275;29;20105;-63
2022/04/25 02:21:52;;;;;;;32.13;18.20;;;8.20;99.90;;;;;;4933982;29;20051;-63
2022/04/25 02:24:17;;;;;;;29.90;17.08;;;8.20;99.90;;;;;;4934127;29;20353;-63
2022/04/25 02:26:43;;;;;;;28.65;17.23;;;8.10;99.90;;;;;;4923797;29;20127;-63
2022/04/25 02:29:08;;;;;;;30.38;17.52;;;8.20;99.90;;;;;;4927871;29;20398;-63
2022/04/25 02:31:34;;;;;;;31.77;17.60;;;8.20;99.90;;;;;;4934144;29;20047;-62
2022/04/25 02:33:59;;;;;;;31.00;17.50;;;8.10;99.90;;;;;;4924282;29;20031;-63
2022/04/25 02:36:25;;;;;;;29.98;17.27;;;8.10;99.90;;;;;;4929427;29;20046;-63
2022/04/25 02:38:50;;;;;;;34.38;18.77;;;8.10;99.90;;;;;;4933891;29;20055;-63
2022/04/25 02:41:16;;;;;;;29.25;17.88;;;8.00;99.90;;;;;;4934150;29;20032;-63
2022/04/25 02:43:43;;;;;;;28.63;17.58;;;8.00;99.90;;;;;;4918947;29;20551;-63
2022/04/25 02:46:11;;;;;;;28.45;17.83;;;7.90;99.90;;;;;;4933405;29;20067;-63
2022/04/25 02:48:38;;;;;;;24.42;17.15;;;7.90;99.90;;;;;;4934150;29;20499;-63
2022/04/25 02:51:06;;;;;;;33.72;18.35;;;7.90;99.90;;;;;;4929833;29;20091;-63
2022/04/25 02:53:32;;;;;;;29.60;17.25;;;7.80;99.90;;;;;;4925343;29;20419;-63
2022/04/25 02:55:58;;;;;;;31.27;17.70;;;7.80;99.90;;;;;;4933247;29;20585;-63
2022/04/25 02:58:25;;;;;;;28.65;18.10;;;7.80;99.90;;;;;;4933496;29;20118;-63
2022/04/25 03:00:52;;;;;;;31.98;17.60;;;7.80;99.90;;;;;;4928513;29;20115;-62
2022/04/25 03:03:19;;;;;;;28.45;17.75;;;7.70;99.90;;;;;;4925769;29;20068;-63
2022/04/25 03:05:46;;;;;;;26.58;17.33;;;7.70;99.90;;;;;;4933563;29;20083;-63
2022/04/25 03:08:13;;;;;;;32.13;17.88;;;7.70;99.90;;;;;;4921052;29;20115;-63
2022/04/25 03:10:39;;;;;;;30.27;18.17;;;7.70;99.90;;;;;;4922849;29;20079;-62
2022/04/25 03:13:08;;;;;;;28.70;16.95;;;7.70;99.90;;;;;;4932627;29;20046;-63
2022/04/25 03:15:34;;;;;;;29.13;17.20;;;7.60;99.90;;;;;;4927499;29;20042;-63
2022/04/25 03:18:01;;;;;;;28.25;17.05;;;7.70;99.90;;;;;;4913393;29;20128;-63
2022/04/25 03:20:28;;;;;;;30.30;16.60;;;7.70;99.90;;;;;;4934547;29;20139;-63
2022/04/25 03:22:55;;;;;;;30.90;16.98;;;7.70;99.90;;;;;;4936453;29;20040;-63
2022/04/25 03:25:20;;;;;;;32.72;17.08;;;7.70;99.90;;;;;;4928913;29;20043;-63
2022/04/25 03:27:46;;;;;;;30.42;16.10;;;7.70;99.90;;;;;;4934651;29;20122;-63
2022/04/25 03:30:11;;;;;;;32.63;17.25;;;7.70;99.90;;;;;;4937235;29;20048;-63
2022/04/25 03:32:37;;;;;;;30.58;16.88;;;7.70;99.90;;;;;;4927510;29;20044;-63
2022/04/25 03:35:03;;;;;;;27.45;16.40;;;7.70;99.90;;;;;;4935022;29;20086;-63
2022/04/25 03:37:30;;;;;;;31.10;16.67;;;7.70;99.90;;;;;;4936669;29;20075;-63
2022/04/25 03:39:58;;;;;;;28.10;15.98;;;7.70;99.90;;;;;;4936706;29;20052;-61
2022/04/25 03:42:24;;;;;;;28.75;15.93;;;7.60;99.90;;;;;;4931783;29;20127;-63
2022/04/25 03:44:50;;;;;;;29.38;15.90;;;7.60;99.90;;;;;;4935990;29;20127;-63
2022/04/25 03:47:16;;;;;;;30.48;16.85;;;7.60;99.90;;;;;;4936995;29;20035;-62
2022/04/25 03:49:41;;;;;;;30.75;16.38;;;7.60;99.90;;;;;;4931000;29;20114;-62
2022/04/25 03:52:07;;;;;;;34.28;16.10;;;7.60;99.90;;;;;;4931619;29;20522;-63
2022/04/25 03:57:17;;;;;;;26.30;15.48;;;7.60;99.90;;;;;;4928903;29;20048;-63
2022/04/25 03:59:43;;;;;;;33.67;16.88;;;7.60;99.90;;;;;;4933376;29;20035;-62
2022/04/25 04:02:08;;;;;;;27.55;15.50;;;7.50;99.90;;;;;;4936299;29;20458;-62
2022/04/25 04:04:34;;;;;;;29.10;16.85;;;7.50;99.90;;;;;;4932369;29;20051;-63
2022/04/25 04:07:02;;;;;;;28.48;17.13;;;7.60;99.90;;;;;;4930587;29;20050;-63
2022/04/25 04:09:46;;;;;;;31.45;16.77;;;7.60;99.90;;;;;;4936037;29;20074;-63
2022/04/25 04:12:24;;;;;;;28.92;15.73;;;7.60;99.90;;;;;;4922625;29;20044;-62
2022/04/25 04:14:49;;;;;;;27.02;16.08;;;7.60;99.90;;;;;;4927490;29;20040;-62
2022/04/25 04:17:17;;;;;;;29.27;16.27;;;7.60;99.90;;;;;;4935735;29;20477;-62
2022/04/25 04:19:43;;;;;;;26.23;15.98;;;7.60;99.90;;;;;;4935330;29;20044;-63
2022/04/25 04:22:09;;;;;;;28.48;16.23;;;7.60;99.90;;;;;;4936109;29;20110;-63
2022/04/25 04:24:34;;;;;;;31.05;16.70;;;7.60;99.90;;;;;;4927408;29;20255;-64
2022/04/25 04:27:04;;;;;;;26.95;15.63;;;7.60;99.90;;;;;;4932118;29;20039;-62
2022/04/25 04:29:31;;;;;;;31.38;15.98;;;7.60;99.90;;;;;;4935823;29;20503;-62
2022/04/25 04:32:07;;;;;;;28.83;16.38;;;7.60;99.90;;;;;;4920001;29;20223;-63
2022/04/25 04:34:34;;;;;;;28.27;15.70;;;7.60;99.90;;;;;;4930684;29;20043;-63
2022/04/25 04:37:00;;;;;;;30.25;15.27;;;7.60;99.90;;;;;;4935498;29;20068;-63
2022/04/25 04:39:26;;;;;;;29.02;14.80;;;7.70;99.90;;;;;;4935647;29;20040;-63
2022/04/25 04:41:51;;;;;;;30.08;15.20;;;7.70;99.90;;;;;;4915075;29;20047;-62
2022/04/25 04:44:17;;;;;;;26.27;15.48;;;7.70;99.90;;;;;;4929554;29;20513;-63
2022/04/25 04:46:43;;;;;;;28.80;15.88;;;7.70;99.90;;;;;;4932676;29;20498;-62
2022/04/25 04:49:09;;;;;;;25.67;15.63;;;7.70;99.90;;;;;;4902202;29;20464;-62
2022/04/25 04:51:35;;;;;;;28.30;16.23;;;7.70;99.90;;;;;;4932135;29;20048;-63
2022/04/25 04:54:02;;;;;;;25.35;14.73;;;7.70;99.90;;;;;;4915938;29;20065;-62
2022/04/25 04:56:29;;;;;;;26.65;15.20;;;7.70;99.90;;;;;;4931414;29;20043;-63
2022/04/25 04:58:54;;;;;;;29.98;16.00;;;7.70;99.90;;;;;;4933427;29;20036;-63
2022/04/25 05:01:20;;;;;;;27.60;15.93;;;7.80;99.90;;;;;;4932599;29;20135;-62
2022/04/25 05:03:46;;;;;;;26.95;14.68;;;7.80;99.90;;;;;;4924289;29;20040;-64
2022/04/25 05:06:12;;;;;;;29.33;15.88;;;7.80;99.90;;;;;;4929536;29;20031;-63
2022/04/25 05:08:38;;;;;;;24.40;13.93;;;7.80;99.90;;;;;;4932029;29;20422;-62
2022/04/25 05:11:05;;;;;;;27.90;14.73;;;7.80;99.90;;;;;;4930706;29;20113;-62
2022/04/25 05:13:31;;;;;;;28.10;15.65;;;7.80;99.90;;;;;;4919894;29;20118;-63
2022/04/25 05:15:57;;;;;;;25.05;15.32;;;7.80;99.90;;;;;;4927629;29;20391;-64
2022/04/25 05:18:24;;;;;;;25.77;14.00;;;7.90;99.90;;;;;;4910047;29;20055;-63
2022/04/25 05:20:50;;;;;;;29.45;15.55;;;7.90;99.90;;;;;;4919293;29;20055;-63
2022/04/25 05:23:16;;;;;;;29.33;14.45;;;7.90;99.90;;;;;;4920957;29;20035;-62
2022/04/25 05:25:41;;;;;;;27.05;15.75;;;7.90;99.90;;;;;;4929820;29;20115;-63
2022/04/25 05:28:07;;;;;;;25.42;14.57;;;7.90;99.90;;;;;;4931393;29;20039;-63
2022/04/25 05:30:33;;;;;;;30.58;15.52;;;7.90;99.90;;;;;;4923012;28;20134;-63
2022/04/25 05:33:02;;;;;;;27.90;15.20;;;7.90;99.90;;;;;;4926770;29;20047;-63
2022/04/25 05:35:30;;;;;;;27.33;14.75;;;7.90;99.90;;;;;;4927302;29;20609;-63
2022/04/25 05:37:56;;;;;;;30.23;16.77;;;7.90;99.90;;;;;;4922670;29;20051;-63
2022/04/25 05:40:22;;;;;;;26.48;15.05;;;8.00;99.90;;;;;;4926150;29;20090;-62
2022/04/25 05:42:50;;;;;;;26.05;15.77;;;8.00;99.90;;;;;;4933407;29;20043;-63
2022/04/25 05:45:18;;;;;;;23.48;15.02;;;8.00;99.90;;;;;;4930731;29;20408;-63
2022/04/25 05:47:44;;;;;;;29.38;15.07;;;8.00;99.90;;;;;;4922480;29;20526;-63
2022/04/25 05:52:57;;;;;;;26.30;15.00;;;8.10;99.90;;;;;;4931905;29;20083;-63
2022/04/25 05:55:23;;;;;;;24.92;15.07;;;8.20;99.90;;;;;;4921964;29;20039;-63
2022/04/25 05:57:50;;;;;;;23.75;14.07;;;8.30;99.90;;;;;;4922389;29;20048;-63
2022/04/25 06:00:16;;;;;;;24.17;13.93;;;8.30;99.90;;;;;;4929235;29;20040;-64
2022/04/25 06:02:43;;;;;;;21.83;13.43;;;8.40;99.90;;;;;;4931484;29;20044;-62
2022/04/25 06:05:12;;;;;;;26.27;13.70;;;8.40;99.90;;;;;;4920993;29;20619;-63
2022/04/25 06:07:43;;;;;;;21.98;13.93;;;8.40;99.90;;;;;;4915801;29;23490;-63
2022/04/25 06:10:10;;;;;;;29.13;14.35;;;8.40;99.90;;;;;;4919846;29;20051;-63
2022/04/25 06:12:41;;;;;;;20.85;13.65;;;8.40;99.90;;;;;;4928131;29;20423;-62
2022/04/25 06:15:08;;;;;;;26.17;14.15;;;8.50;99.90;;;;;;4908972;29;20114;-63
2022/04/25 06:17:33;;;;;;;28.08;14.60;;;8.40;99.90;;;;;;4932426;29;20063;-63
2022/04/25 06:19:59;;;;;;;26.17;14.10;;;8.40;99.90;;;;;;4922173;29;20510;-64
2022/04/25 06:22:24;;;;;;;23.80;13.85;;;8.40;99.90;;;;;;4929317;29;20383;-63
2022/04/25 06:24:50;;;;;;;26.45;15.23;;;8.50;99.90;;;;;;4933810;29;20509;-63
2022/04/25 06:27:15;;;;;;;26.48;13.30;;;8.50;99.90;;;;;;4919910;29;20087;-63
2022/04/25 06:29:44;;;;;;;24.15;13.88;;;8.50;99.90;;;;;;4928015;29;20044;-63
2022/04/25 06:32:10;;;;;;;28.13;14.52;;;8.50;99.90;;;;;;4932470;29;20054;-63
2022/04/25 06:34:36;;;;;;;26.13;13.65;;;8.60;99.90;;;;;;4933782;29;20086;-64
2022/04/25 06:37:02;;;;;;;26.52;14.63;;;8.60;99.90;;;;;;4930066;29;20063;-63
2022/04/25 06:39:28;;;;;;;26.90;14.32;;;8.70;99.90;;;;;;4925236;29;20087;-63
2022/04/25 06:41:54;;;;;;;28.58;14.50;;;8.70;99.90;;;;;;4929348;29;20044;-63
2022/04/25 06:44:19;;;;;;;30.95;15.23;;;8.80;99.90;;;;;;4923571;29;20035;-63
2022/04/25 06:46:45;;;;;;;28.25;15.82;;;8.80;99.90;;;;;;4930977;29;20094;-63
2022/04/25 06:49:20;;;;;;;27.33;14.98;;;8.80;99.90;;;;;;4931022;29;20044;-63
2022/04/25 06:51:47;;;;;;;27.48;14.93;;;8.90;99.90;;;;;;4933022;29;20138;-63
2022/04/25 06:54:16;;;;;;;27.15;14.93;;;8.90;99.90;;;;;;4919966;29;20059;-62
2022/04/25 06:56:42;;;;;;;28.13;14.98;;;8.80;99.90;;;;;;4932311;29;20043;-63
2022/04/25 06:59:07;;;;;;;32.90;16.02;;;8.80;99.90;;;;;;4947130;28;20090;-63
2022/04/25 07:01:33;;;;;;;27.45;16.10;;;8.80;99.90;;;;;;4922776;29;20040;-63
2022/04/25 07:04:09;;;;;;;28.30;15.25;;;8.70;99.90;;;;;;4931577;29;20036;-63
2022/04/25 07:06:34;;;;;;;32.75;16.48;;;8.70;99.90;;;;;;4937002;29;20054;-63
2022/04/25 07:09:00;;;;;;;31.85;16.73;;;8.70;99.90;;;;;;4924777;29;20409;-63
2022/04/25 07:11:26;;;;;;;33.17;16.80;;;8.70;99.90;;;;;;4928202;29;20111;-63
2022/04/25 07:13:51;;;;;;;32.75;16.35;;;8.70;99.90;;;;;;4925722;29;20054;-63
2022/04/25 07:16:17;;;;;;;32.15;16.08;;;8.70;99.90;;;;;;4929790;29;20039;-63
2022/04/25 07:18:43;;;;;;;29.50;16.08;;;8.70;99.90;;;;;;4922763;29;20083;-63
2022/04/25 07:29:22;;;;;;;27.13;15.43;;;8.80;99.90;;;;;;4934885;29;20051;-63
2022/04/25 07:31:50;;;;;;;27.50;15.82;;;8.80;99.90;;;;;;4918265;29;20056;-63
2022/04/25 07:34:20;;;;;;;25.75;15.32;;;8.80;99.90;;;;;;4924087;29;20091;-63
2022/04/25 07:36:51;;;;;;;22.17;14.88;;;8.80;99.90;;;;;;4934552;29;20487;-62
2022/04/25 07:39:18;;;;;;;29.55;15.73;;;8.80;99.90;;;;;;4919283;29;20068;-62
2022/04/25 07:41:44;;;;;;;25.95;15.60;;;8.80;99.90;;;;;;4932916;29;20051;-63
2022/04/25 07:44:10;;;;;;;29.02;16.00;;;8.80;99.90;;;;;;4936206;29;20036;-63
2022/04/25 07:46:36;;;;;;;25.15;15.48;;;8.70;99.90;;;;;;4933871;29;20047;-62
2022/04/25 07:49:02;;;;;;;27.27;16.48;;;8.80;99.90;;;;;;4925843;29;20063;-63
2022/04/25 07:51:27;;;;;;;26.02;15.23;;;8.70;99.90;;;;;;4920809;29;20089;-63
2022/04/25 07:53:53;;;;;;;32.75;16.85;;;8.70;99.90;;;;;;4923092;29;20055;-63
2022/04/25 07:56:18;;;;;;;30.50;16.63;;;8.70;99.90;;;;;;4927442;29;20043;-63
2022/04/25 07:58:45;;;;;;;30.63;16.90;;;8.70;99.90;;;;;;4935992;29;20047;-63
2022/04/25 08:01:11;;;;;;;29.98;16.58;;;8.60;99.90;;;;;;4923543;29;20172;-63
2022/04/25 08:03:37;;;;;;;30.08;17.27;;;8.70;99.90;;;;;;4921575;29;20377;-63
2022/04/25 08:06:04;;;;;;;30.30;16.65;;;8.70;99.90;;;;;;4920204;29;20043;-62
2022/04/25 08:08:30;;;;;;;28.98;16.65;;;8.70;99.90;;;;;;4918378;29;20051;-63
2022/04/25 08:10:56;;;;;;;31.85;17.83;;;8.70;99.90;;;;;;4921546;29;20047;-62
2022/04/25 08:18:51;;;;;;;27.85;16.40;;;8.70;99.90;;;;;;4931617;29;20055;-63
2022/04/25 08:21:17;;;;;;;25.67;16.20;;;8.60;99.90;;;;;;4933413;29;20044;-63
2022/04/25 08:23:45;;;;;;;34.33;17.58;;;8.50;99.90;;;;;;4916700;29;20040;-63
2022/04/25 08:26:11;;;;;;;27.30;16.33;;;8.60;99.90;;;;;;4917057;29;20040;-63
2022/04/25 08:28:37;;;;;;;28.65;16.92;;;8.60;99.90;;;;;;4928293;29;20077;-62
2022/04/25 08:31:04;;;;;;;28.15;17.67;;;8.60;99.90;;;;;;4934492;29;20059;-63
2022/04/25 08:33:30;;;;;;;26.77;16.08;;;8.60;99.90;;;;;;4928208;29;20040;-62
2022/04/25 08:35:58;;;;;;;29.00;16.60;;;8.70;99.90;;;;;;4932607;29;20067;-63
2022/04/25 08:38:24;;;;;;;23.17;14.98;;;8.70;99.90;;;;;;4935459;29;20048;-63
2022/04/25 08:40:50;;;;;;;26.73;16.95;;;8.70;99.90;;;;;;4930757;29;20071;-63
2022/04/25 08:43:17;;;;;;;29.75;17.35;;;8.70;99.90;;;;;;4931154;29;20039;-63
2022/04/25 08:45:45;;;;;;;33.03;16.90;;;8.80;99.90;;;;;;4933809;29;20032;-63
2022/04/25 08:48:12;;;;;;;27.48;17.45;;;8.80;99.90;;;;;;4934188;29;20044;-63
2022/04/25 08:50:41;;;;;;;30.70;17.05;;;8.80;99.90;;;;;;4923708;29;20044;-63
2022/04/25 08:53:07;;;;;;;28.25;16.85;;;8.80;99.90;;;;;;4932513;29;20039;-63
2022/04/25 08:55:33;;;;;;;30.48;16.02;;;8.90;99.90;;;;;;4934004;29;20525;-63
2022/04/25 08:58:00;;;;;;;29.42;17.75;;;8.90;99.90;;;;;;4924960;29;20518;-63
2022/04/25 09:00:26;;;;;;;29.13;17.35;;;8.90;99.90;;;;;;4923742;29;20043;-63
2022/04/25 09:02:52;;;;;;;31.35;18.27;;;8.90;99.90;;;;;;4926576;29;20361;-63
2022/04/25 09:05:18;;;;;;;29.23;17.25;;;8.90;99.90;;;;;;4926062;29;20054;-63
2022/04/25 09:07:44;;;;;;;28.67;16.85;;;8.90;99.90;;;;;;4929296;29;20548;-63
2022/04/25 09:10:13;;;;;;;33.60;17.50;;;8.90;99.90;;;;;;4927034;29;20119;-63
2022/04/25 09:12:42;;;;;;;31.23;17.55;;;8.90;99.90;;;;;;4923503;29;20145;-63
2022/04/25 09:15:09;;;;;;;31.88;17.23;;;8.90;99.90;;;;;;4920333;29;20064;-63
2022/04/25 09:17:39;;;;;;;35.35;19.33;;;8.90;99.90;;;;;;4932838;29;20185;-63
2022/04/25 09:20:07;;;;;;;33.67;18.50;;;9.00;99.90;;;;;;4921930;29;20414;-63
2022/04/25 09:22:35;;;;;;;32.83;17.35;;;9.10;99.90;;;;;;4933944;29;20138;-63
2022/04/25 09:25:20;;;;;;;37.38;18.70;;;9.20;99.90;;;;;;4911512;29;20089;-62
2022/04/25 09:27:47;;;;;;;32.80;17.67;;;9.40;99.90;;;;;;4911815;29;20047;-63
2022/04/25 09:30:20;;;;;;;29.30;17.90;;;9.60;99.90;;;;;;4920231;29;20494;-64
2022/04/25 09:32:49;;;;;;;29.25;17.05;;;9.80;99.90;;;;;;4922902;29;20047;-63
2022/04/25 09:35:39;;;;;;;26.58;16.95;;;9.80;99.90;;;;;;4934407;29;20110;-64
2022/04/25 09:38:08;;;;;;;27.02;16.83;;;9.90;99.90;;;;;;4917908;29;20052;-63
2022/04/25 09:40:36;;;;;;;25.52;15.77;;;10.00;99.90;;;;;;4980528;23;20494;-61
2022/04/25 09:43:08;;;;;;;29.55;17.13;;;10.10;99.90;;;;;;4945470;28;20336;-61
2022/04/25 09:45:37;;;;;;;25.35;15.57;;;10.20;99.90;;;;;;4969416;28;20042;-61
2022/04/25 09:48:09;;;;;;;29.02;15.32;;;10.20;99.90;;;;;;4943416;28;20532;-61
2022/04/25 09:50:34;;;;;;;23.85;15.00;;;10.20;99.90;;;;;;4945496;28;20114;-61
2022/04/25 09:53:03;;;;;;;25.73;15.07;;;10.10;99.90;;;;;;4971838;28;20118;-61
2022/04/25 10:00:39;;;;;;;25.48;14.25;;;9.90;99.90;;;;;;5250916;23;20109;-61
2022/04/25 10:03:06;;;;;;;23.75;14.30;;;10.00;99.90;;;;;;4967699;28;20026;-61
2022/04/25 10:08:10;;;;;;;21.27;12.50;;;10.00;99.90;;;;;;5374370;23;20055;-61
2022/04/25 10:10:40;;;;;;;20.85;12.70;;;10.00;99.90;;;;;;4964931;28;20049;-62
2022/04/25 10:13:06;;;;;;;20.58;13.55;;;9.90;99.90;;;;;;4929730;29;20382;-62
2022/04/25 10:33:49;;;;;;;26.60;12.43;;;9.80;99.90;;;;;;4947924;29;20039;-61
2022/04/25 10:36:36;;;;;;;19.70;12.65;;;9.90;99.90;;;;;;4950106;29;20050;-61
2022/04/25 10:39:17;;;;;;;21.45;12.90;;;9.90;99.90;;;;;;4936529;28;20047;-61
2022/04/25 10:44:18;;;;;;;20.15;12.60;;;10.00;99.90;;;;;;5378724;23;20059;-61
2022/04/25 10:47:06;;;;;;;17.85;12.80;;;10.00;99.90;;;;;;4965716;28;20432;-61
2022/04/25 10:49:32;;;;;;;17.92;12.50;;;10.00;99.90;;;;;;4955366;28;20602;-61
2022/04/25 10:51:59;;;;;;;19.88;13.18;;;10.10;99.90;;;;;;4969013;28;20058;-61
2022/04/25 10:54:28;;;;;;;20.88;13.77;;;10.20;99.90;;;;;;4966522;28;20405;-61
2022/04/25 10:57:21;;;;;;;24.48;14.10;;;10.40;99.90;;;;;;4967539;28;20105;-61
2022/04/25 11:02:28;;;;;;;21.55;13.30;;;10.90;99.90;;;;;;4953669;29;20047;-61
2022/04/25 11:05:12;;;;;;;22.88;14.32;;;11.10;99.90;;;;;;4943066;29;20098;-61
2022/04/25 11:07:41;;;;;;;21.80;14.60;;;11.30;99.90;;;;;;5198991;23;20492;-61
2022/04/25 11:10:28;;;;;;;22.25;14.43;;;11.50;99.90;;;;;;4960000;28;20035;-62
2022/04/25 11:12:58;;;;;;;26.15;15.32;;;11.80;99.90;;;;;;4965083;28;20038;-62
2022/04/25 11:15:44;;;;;;;27.40;15.20;;;12.00;99.90;;;;;;4960593;28;20070;-62
2022/04/25 11:18:28;;;;;;;22.05;15.68;;;12.10;99.90;;;;;;4960809;28;20045;-62
2022/04/25 11:20:57;;;;;;;22.67;15.32;;;12.00;99.90;;;;;;4962565;28;20039;-62
2022/04/25 11:25:51;;;;;;;27.20;15.27;;;11.80;99.90;;;;;;4954220;29;20518;-62
2022/04/25 11:34:34;;;;;;;24.80;14.65;;;11.50;99.90;;;;;;5960859;23;20044;-61
2022/04/25 11:37:00;;;;;;;21.20;14.60;;;11.40;99.90;;;;;;4971768;28;20039;-62
2022/04/25 11:45:22;;;;;;;22.92;13.50;;;11.50;99.90;;;;;;5792427;23;20149;-61
2022/04/25 11:47:48;;;;;;;22.58;13.45;;;11.40;99.90;;;;;;4965040;28;20051;-61
2022/04/25 11:58:32;;;;;;;20.15;13.05;;;11.80;99.90;;;;;;5449034;23;20043;-61
2022/04/25 12:00:58;;;;;;;17.88;12.77;;;11.90;99.90;;;;;;4967553;28;20382;-61
2022/04/25 12:03:24;;;;;;;18.02;12.13;;;12.00;99.90;;;;;;4967058;28;20082;-62
2022/04/25 12:05:50;;;;;;;14.82;10.68;;;11.90;99.90;;;;;;4969925;28;20065;-61
2022/04/25 12:21:12;;;;;;;17.52;11.25;;;11.60;99.90;;;;;;4972028;28;20047;-63
2022/04/25 12:23:57;;;;;;;18.52;10.35;;;11.60;99.90;;;;;;4973486;28;20045;-63
2022/04/25 12:26:25;;;;;;;17.52;10.65;;;11.70;99.90;;;;;;4968157;28;20034;-63
2022/04/25 12:29:02;;;;;;;16.15;11.35;;;11.90;99.90;;;;;;4973121;28;20448;-62
2022/04/25 12:31:29;;;;;;;20.67;12.20;;;11.80;99.90;;;;;;4970436;28;20405;-63
2022/04/25 12:33:55;;;;;;;17.83;11.98;;;11.80;99.90;;;;;;4961201;28;20031;-63
2022/04/25 12:36:27;;;;;;;21.88;11.48;;;12.00;99.90;;;;;;4969763;28;20076;-63
2022/04/25 12:39:14;;;;;;;19.02;11.70;;;12.10;99.90;;;;;;4973603;28;20038;-63
2022/04/25 12:41:50;;;;;;;20.25;12.07;;;12.10;99.90;;;;;;4968709;28;20067;-63
2022/04/25 12:44:17;;;;;;;16.23;11.30;;;12.10;99.90;;;;;;4971702;28;20477;-63
2022/04/25 12:46:54;;;;;;;17.45;12.25;;;12.00;99.90;;;;;;4969445;28;20114;-63
2022/04/25 12:49:33;;;;;;;16.90;11.80;;;11.90;99.90;;;;;;4973379;28;20422;-63
2022/04/25 12:52:00;;;;;;;18.48;11.93;;;11.70;99.90;;;;;;4966298;28;20046;-62
2022/04/25 12:54:36;;;;;;;20.00;12.20;;;11.60;99.90;;;;;;4968880;28;20051;-63
2022/04/25 12:57:04;;;;;;;16.42;11.95;;;11.40;99.90;;;;;;4964583;28;20035;-62
2022/04/25 12:59:30;;;;;;;17.58;12.82;;;11.40;99.90;;;;;;4967632;28;20031;-63
2022/04/25 13:02:09;;;;;;;17.08;12.90;;;11.30;99.90;;;;;;4972203;28;20047;-63
2022/04/25 13:04:57;;;;;;;17.45;12.75;;;11.30;99.90;;;;;;4971779;28;20041;-62
2022/04/25 13:07:24;;;;;;;19.40;13.55;;;11.30;99.90;;;;;;4969520;28;20035;-62
2022/04/25 13:09:53;;;;;;;20.38;13.45;;;11.20;99.90;;;;;;4968074;28;20039;-62
2022/04/25 13:12:19;;;;;;;22.67;14.52;;;11.20;99.90;;;;;;4972580;28;20477;-62
2022/04/25 13:14:45;;;;;;;21.48;13.93;;;11.20;99.90;;;;;;4972803;28;20134;-62
2022/04/25 13:17:11;;;;;;;21.02;13.32;;;11.30;99.90;;;;;;4969422;28;20044;-62
2022/04/25 13:19:38;;;;;;;21.80;14.98;;;11.30;99.90;;;;;;4971896;28;20034;-62
2022/04/25 13:22:04;;;;;;;21.02;13.45;;;11.40;99.90;;;;;;4960647;28;20031;-62
2022/04/25 13:24:29;;;;;;;21.35;14.27;;;11.50;99.90;;;;;;4967482;28;20122;-62
2022/04/25 13:26:55;;;;;;;22.77;14.57;;;11.60;99.90;;;;;;4970061;28;20074;-64
2022/04/25 13:29:20;;;;;;;25.40;14.50;;;11.60;99.90;;;;;;4968141;28;20039;-62
2022/04/25 13:31:46;;;;;;;22.45;14.60;;;11.60;99.90;;;;;;4967501;28;20070;-63
2022/04/25 13:34:12;;;;;;;21.52;14.65;;;11.60;99.90;;;;;;4969944;28;20030;-63
2022/04/25 13:36:38;;;;;;;23.77;14.68;;;11.60;99.90;;;;;;4970484;28;20039;-63
2022/04/25 13:39:03;;;;;;;25.77;14.85;;;11.50;99.90;;;;;;4968809;28;20065;-63
2022/04/25 13:41:30;;;;;;;20.05;14.45;;;11.50;99.90;;;;;;4964945;28;20034;-63
2022/04/25 13:43:56;;;;;;;21.50;15.52;;;11.40;99.90;;;;;;4971125;28;20089;-63
2022/04/25 13:46:22;;;;;;;21.75;14.85;;;11.30;99.90;;;;;;4970275;28;20074;-63
2022/04/25 13:48:50;;;;;;;21.73;15.63;;;11.30;99.90;;;;;;4969123;28;20043;-63
2022/04/25 13:51:17;;;;;;;23.00;14.85;;;11.30;99.90;;;;;;4955915;28;20038;-65
2022/04/25 13:53:43;;;;;;;25.23;15.43;;;11.30;99.90;;;;;;4968354;28;20035;-64
2022/04/25 13:56:09;;;;;;;20.83;15.20;;;11.30;99.90;;;;;;4954118;28;20058;-64
2022/04/25 13:58:37;;;;;;;26.38;15.73;;;11.30;99.90;;;;;;4957061;28;20393;-64
2022/04/25 14:01:03;;;;;;;21.70;16.02;;;11.30;99.90;;;;;;4954441;28;20054;-64
2022/04/25 14:03:29;;;;;;;29.98;16.92;;;11.30;99.90;;;;;;4974425;28;22299;-64
2022/04/25 14:05:55;;;;;;;23.63;15.68;;;11.40;99.90;;;;;;4966255;28;20540;-64